sensor_id;sensor_type;location;lat;lon;timestamp;P1;durP1;ratioP1;P2;durP2;ratioP2
13366;SDS011;6752;52.612;13.630;2022-10-16T00:01:29;6.85;;;4.10;;
13366;SDS011;6752;52.612;13.630;2022-10-16T00:11:34;11.07;;;5.65;;
13366;SDS011;6752;52.612;13.630;2022-10-16T00:16:38;8.00;;;5.53;;
13366;SDS011;6752;52.612;13.630;2022-10-16T00:21:40;10.00;;;4.70;;
13366;SDS011;6752;52.612;13.630;2022-10-16T00:26:43;8.20;;;4.62;;
13366;SDS011;6752;52.612;13.630;2022-10-16T00:31:45;8.27;;;4.80;;
13366;SDS011;6752;52.612;13.630;2022-10-16T00:36:49;8.73;;;5.30;;
13366;SDS011;6752;52.612;13.630;2022-10-16T00:41:51;7.60;;;5.25;;
13366;SDS011;6752;52.612;13.630;2022-10-16T00:46:54;6.57;;;4.10;;
13366;SDS011;6752;52.612;13.630;2022-10-16T00:51:56;7.00;;;4.60;;
13366;SDS011;6752;52.612;13.630;2022-10-16T00:57:02;6.12;;;3.67;;
13366;SDS011;6752;52.612;13.630;2022-10-16T01:02:05;6.90;;;4.65;;
13366;SDS011;6752;52.612;13.630;2022-10-16T01:12:28;7.60;;;4.47;;
13366;SDS011;6752;52.612;13.630;2022-10-16T01:17:32;6.90;;;4.05;;
13366;SDS011;6752;52.612;13.630;2022-10-16T01:32:42;6.57;;;3.80;;
13366;SDS011;6752;52.612;13.630;2022-10-16T01:37:46;7.72;;;4.47;;
13366;SDS011;6752;52.612;13.630;2022-10-16T01:42:51;7.18;;;3.90;;
13366;SDS011;6752;52.612;13.630;2022-10-16T01:47:52;5.95;;;3.80;;
13366;SDS011;6752;52.612;13.630;2022-10-16T01:53:00;9.32;;;4.87;;
13366;SDS011;6752;52.612;13.630;2022-10-16T01:58:02;7.75;;;4.22;;
13366;SDS011;6752;52.612;13.630;2022-10-16T02:03:07;8.98;;;4.00;;
13366;SDS011;6752;52.612;13.630;2022-10-16T02:08:10;6.62;;;4.72;;
13366;SDS011;6752;52.612;13.630;2022-10-16T02:13:29;7.87;;;4.28;;
13366;SDS011;6752;52.612;13.630;2022-10-16T02:18:30;7.47;;;3.95;;
13366;SDS011;6752;52.612;13.630;2022-10-16T02:23:44;7.03;;;3.87;;
13366;SDS011;6752;52.612;13.630;2022-10-16T02:28:53;7.37;;;4.53;;
13366;SDS011;6752;52.612;13.630;2022-10-16T02:33:58;5.35;;;3.50;;
13366;SDS011;6752;52.612;13.630;2022-10-16T02:39:00;6.32;;;3.95;;
13366;SDS011;6752;52.612;13.630;2022-10-16T02:44:05;5.30;;;3.28;;
13366;SDS011;6752;52.612;13.630;2022-10-16T02:49:08;6.18;;;3.03;;
13366;SDS011;6752;52.612;13.630;2022-10-16T02:54:13;8.23;;;3.07;;
13366;SDS011;6752;52.612;13.630;2022-10-16T02:59:15;6.33;;;2.73;;
13366;SDS011;6752;52.612;13.630;2022-10-16T03:04:21;5.80;;;2.63;;
13366;SDS011;6752;52.612;13.630;2022-10-16T03:09:24;5.40;;;2.72;;
13366;SDS011;6752;52.612;13.630;2022-10-16T03:14:30;5.15;;;2.62;;
13366;SDS011;6752;52.612;13.630;2022-10-16T03:19:32;4.97;;;2.35;;
13366;SDS011;6752;52.612;13.630;2022-10-16T03:24:37;5.00;;;2.58;;
13366;SDS011;6752;52.612;13.630;2022-10-16T03:29:40;7.00;;;2.83;;
13366;SDS011;6752;52.612;13.630;2022-10-16T03:34:45;6.00;;;2.87;;
13366;SDS011;6752;52.612;13.630;2022-10-16T03:39:47;6.35;;;3.10;;
13366;SDS011;6752;52.612;13.630;2022-10-16T03:44:53;4.82;;;2.42;;
13366;SDS011;6752;52.612;13.630;2022-10-16T03:49:56;4.93;;;2.28;;
13366;SDS011;6752;52.612;13.630;2022-10-16T03:55:01;5.22;;;2.75;;
13366;SDS011;6752;52.612;13.630;2022-10-16T04:00:03;6.40;;;3.20;;
13366;SDS011;6752;52.612;13.630;2022-10-16T04:10:07;8.88;;;3.55;;
13366;SDS011;6752;52.612;13.630;2022-10-16T04:15:12;5.28;;;3.25;;
13366;SDS011;6752;52.612;13.630;2022-10-16T04:20:15;6.80;;;3.67;;
13366;SDS011;6752;52.612;13.630;2022-10-16T04:25:20;7.50;;;3.30;;
13366;SDS011;6752;52.612;13.630;2022-10-16T04:30:23;6.47;;;4.18;;
13366;SDS011;6752;52.612;13.630;2022-10-16T04:35:25;6.30;;;3.83;;
13366;SDS011;6752;52.612;13.630;2022-10-16T04:45:32;9.48;;;3.55;;
13366;SDS011;6752;52.612;13.630;2022-10-16T04:50:35;6.05;;;4.12;;
13366;SDS011;6752;52.612;13.630;2022-10-16T04:55:40;7.18;;;4.97;;
13366;SDS011;6752;52.612;13.630;2022-10-16T05:00:43;6.07;;;3.87;;
13366;SDS011;6752;52.612;13.630;2022-10-16T05:10:49;6.90;;;4.95;;
13366;SDS011;6752;52.612;13.630;2022-10-16T05:20:56;6.12;;;3.95;;
13366;SDS011;6752;52.612;13.630;2022-10-16T05:26:02;8.82;;;4.57;;
13366;SDS011;6752;52.612;13.630;2022-10-16T05:31:08;6.32;;;4.20;;
13366;SDS011;6752;52.612;13.630;2022-10-16T05:36:10;7.32;;;4.57;;
13366;SDS011;6752;52.612;13.630;2022-10-16T05:41:15;5.62;;;3.85;;
13366;SDS011;6752;52.612;13.630;2022-10-16T05:46:18;5.93;;;3.30;;
13366;SDS011;6752;52.612;13.630;2022-10-16T05:51:20;6.70;;;3.83;;
13366;SDS011;6752;52.612;13.630;2022-10-16T05:56:25;6.22;;;3.67;;
13366;SDS011;6752;52.612;13.630;2022-10-16T06:01:27;8.77;;;4.57;;
13366;SDS011;6752;52.612;13.630;2022-10-16T06:06:32;6.40;;;4.12;;
13366;SDS011;6752;52.612;13.630;2022-10-16T06:11:36;5.50;;;3.30;;
13366;SDS011;6752;52.612;13.630;2022-10-16T06:16:41;8.57;;;4.75;;
13366;SDS011;6752;52.612;13.630;2022-10-16T06:21:43;6.47;;;4.12;;
13366;SDS011;6752;52.612;13.630;2022-10-16T06:26:46;7.80;;;4.35;;
13366;SDS011;6752;52.612;13.630;2022-10-16T06:31:48;8.13;;;4.10;;
13366;SDS011;6752;52.612;13.630;2022-10-16T06:36:51;6.47;;;4.68;;
13366;SDS011;6752;52.612;13.630;2022-10-16T06:41:53;6.72;;;4.35;;
13366;SDS011;6752;52.612;13.630;2022-10-16T06:46:55;8.07;;;4.35;;
13366;SDS011;6752;52.612;13.630;2022-10-16T06:51:58;8.25;;;4.78;;
13366;SDS011;6752;52.612;13.630;2022-10-16T06:57:00;7.45;;;4.37;;
13366;SDS011;6752;52.612;13.630;2022-10-16T07:02:03;5.60;;;3.75;;
13366;SDS011;6752;52.612;13.630;2022-10-16T07:07:05;9.00;;;4.68;;
13366;SDS011;6752;52.612;13.630;2022-10-16T07:12:07;8.18;;;4.85;;
13366;SDS011;6752;52.612;13.630;2022-10-16T07:17:10;8.95;;;4.15;;
13366;SDS011;6752;52.612;13.630;2022-10-16T07:22:12;7.00;;;3.80;;
13366;SDS011;6752;52.612;13.630;2022-10-16T07:27:16;7.82;;;3.95;;
13366;SDS011;6752;52.612;13.630;2022-10-16T07:32:18;6.22;;;3.85;;
13366;SDS011;6752;52.612;13.630;2022-10-16T07:37:21;6.25;;;3.60;;
13366;SDS011;6752;52.612;13.630;2022-10-16T07:42:23;5.47;;;3.40;;
13366;SDS011;6752;52.612;13.630;2022-10-16T07:47:25;5.62;;;3.37;;
13366;SDS011;6752;52.612;13.630;2022-10-16T07:52:28;4.97;;;2.22;;
13366;SDS011;6752;52.612;13.630;2022-10-16T07:57:30;6.43;;;2.40;;
13366;SDS011;6752;52.612;13.630;2022-10-16T08:07:34;5.85;;;2.30;;
13366;SDS011;6752;52.612;13.630;2022-10-16T08:12:37;5.72;;;2.80;;
13366;SDS011;6752;52.612;13.630;2022-10-16T08:22:41;8.35;;;2.67;;
13366;SDS011;6752;52.612;13.630;2022-10-16T08:27:44;5.28;;;2.55;;
13366;SDS011;6752;52.612;13.630;2022-10-16T08:32:46;5.03;;;2.75;;
13366;SDS011;6752;52.612;13.630;2022-10-16T08:37:48;6.37;;;2.80;;
13366;SDS011;6752;52.612;13.630;2022-10-16T08:53:48;5.03;;;2.15;;
13366;SDS011;6752;52.612;13.630;2022-10-16T08:58:40;6.28;;;2.12;;
13366;SDS011;6752;52.612;13.630;2022-10-16T09:03:49;5.43;;;1.90;;
13366;SDS011;6752;52.612;13.630;2022-10-16T09:14:50;3.85;;;1.45;;
13366;SDS011;6752;52.612;13.630;2022-10-16T09:25:14;4.05;;;1.45;;
13366;SDS011;6752;52.612;13.630;2022-10-16T09:30:17;5.25;;;1.95;;
13366;SDS011;6752;52.612;13.630;2022-10-16T09:45:38;5.43;;;1.30;;
13366;SDS011;6752;52.612;13.630;2022-10-16T09:50:40;5.05;;;2.65;;
13366;SDS011;6752;52.612;13.630;2022-10-16T09:55:49;4.90;;;1.90;;
13366;SDS011;6752;52.612;13.630;2022-10-16T10:00:53;4.75;;;2.03;;
13366;SDS011;6752;52.612;13.630;2022-10-16T10:06:06;4.43;;;1.50;;
13366;SDS011;6752;52.612;13.630;2022-10-16T10:11:01;3.70;;;1.02;;
13366;SDS011;6752;52.612;13.630;2022-10-16T10:16:07;3.47;;;0.90;;
13366;SDS011;6752;52.612;13.630;2022-10-16T10:21:12;4.32;;;1.60;;
13366;SDS011;6752;52.612;13.630;2022-10-16T10:26:16;5.93;;;2.60;;
13366;SDS011;6752;52.612;13.630;2022-10-16T10:31:26;4.03;;;1.10;;
13366;SDS011;6752;52.612;13.630;2022-10-16T10:36:41;5.80;;;1.30;;
13366;SDS011;6752;52.612;13.630;2022-10-16T10:42:08;6.85;;;2.95;;
13366;SDS011;6752;52.612;13.630;2022-10-16T10:46:51;9.55;;;5.12;;
13366;SDS011;6752;52.612;13.630;2022-10-16T11:02:36;29.85;;;17.30;;
13366;SDS011;6752;52.612;13.630;2022-10-16T11:07:40;11.97;;;4.67;;
13366;SDS011;6752;52.612;13.630;2022-10-16T11:12:46;11.25;;;5.15;;
13366;SDS011;6752;52.612;13.630;2022-10-16T11:23:00;6.32;;;2.47;;
13366;SDS011;6752;52.612;13.630;2022-10-16T11:28:11;4.12;;;1.10;;
13366;SDS011;6752;52.612;13.630;2022-10-16T11:38:50;3.62;;;1.52;;
13366;SDS011;6752;52.612;13.630;2022-10-16T11:43:50;5.12;;;1.08;;
13366;SDS011;6752;52.612;13.630;2022-10-16T11:54:20;7.87;;;3.65;;
13366;SDS011;6752;52.612;13.630;2022-10-16T12:04:46;11.15;;;4.00;;
13366;SDS011;6752;52.612;13.630;2022-10-16T12:09:46;6.12;;;1.15;;
13366;SDS011;6752;52.612;13.630;2022-10-16T12:15:18;4.12;;;1.33;;
13366;SDS011;6752;52.612;13.630;2022-10-16T12:25:21;4.47;;;1.77;;
13366;SDS011;6752;52.612;13.630;2022-10-16T12:30:22;6.53;;;1.45;;
13366;SDS011;6752;52.612;13.630;2022-10-16T12:35:28;5.22;;;1.42;;
13366;SDS011;6752;52.612;13.630;2022-10-16T12:40:30;6.72;;;0.60;;
13366;SDS011;6752;52.612;13.630;2022-10-16T12:45:35;3.72;;;0.88;;
13366;SDS011;6752;52.612;13.630;2022-10-16T12:50:37;3.25;;;1.10;;
13366;SDS011;6752;52.612;13.630;2022-10-16T12:55:44;3.08;;;0.43;;
13366;SDS011;6752;52.612;13.630;2022-10-16T13:27:32;3.85;;;0.40;;
13366;SDS011;6752;52.612;13.630;2022-10-16T13:32:40;0.75;;;0.30;;
13366;SDS011;6752;52.612;13.630;2022-10-16T13:37:42;1.37;;;0.30;;
13366;SDS011;6752;52.612;13.630;2022-10-16T13:42:47;1.35;;;0.30;;
13366;SDS011;6752;52.612;13.630;2022-10-16T13:48:01;4.03;;;0.43;;
13366;SDS011;6752;52.612;13.630;2022-10-16T13:53:09;1.67;;;0.40;;
13366;SDS011;6752;52.612;13.630;2022-10-16T13:58:13;2.10;;;0.55;;
13366;SDS011;6752;52.612;13.630;2022-10-16T14:03:15;2.28;;;0.30;;
13366;SDS011;6752;52.612;13.630;2022-10-16T14:08:21;0.60;;;0.30;;
13366;SDS011;6752;52.612;13.630;2022-10-16T14:13:30;1.62;;;0.57;;
13366;SDS011;6752;52.612;13.630;2022-10-16T14:18:31;4.15;;;0.50;;
13366;SDS011;6752;52.612;13.630;2022-10-16T14:23:35;2.85;;;0.50;;
13366;SDS011;6752;52.612;13.630;2022-10-16T14:28:39;2.22;;;0.50;;
13366;SDS011;6752;52.612;13.630;2022-10-16T14:33:44;0.95;;;0.30;;
13366;SDS011;6752;52.612;13.630;2022-10-16T14:38:54;3.00;;;0.50;;
13366;SDS011;6752;52.612;13.630;2022-10-16T14:43:54;1.42;;;0.40;;
13366;SDS011;6752;52.612;13.630;2022-10-16T14:49:03;3.50;;;0.50;;
13366;SDS011;6752;52.612;13.630;2022-10-16T14:54:02;3.70;;;0.50;;
13366;SDS011;6752;52.612;13.630;2022-10-16T14:59:04;1.90;;;0.47;;
13366;SDS011;6752;52.612;13.630;2022-10-16T15:04:10;1.52;;;0.35;;
13366;SDS011;6752;52.612;13.630;2022-10-16T15:09:12;3.25;;;0.60;;
13366;SDS011;6752;52.612;13.630;2022-10-16T15:14:18;3.65;;;0.55;;
13366;SDS011;6752;52.612;13.630;2022-10-16T15:19:20;3.30;;;0.60;;
13366;SDS011;6752;52.612;13.630;2022-10-16T15:24:26;2.42;;;0.85;;
13366;SDS011;6752;52.612;13.630;2022-10-16T15:29:28;1.37;;;0.40;;
13366;SDS011;6752;52.612;13.630;2022-10-16T15:34:34;1.02;;;0.50;;
13366;SDS011;6752;52.612;13.630;2022-10-16T15:39:36;3.75;;;0.68;;
13366;SDS011;6752;52.612;13.630;2022-10-16T15:44:39;3.12;;;0.70;;
13366;SDS011;6752;52.612;13.630;2022-10-16T15:49:41;1.55;;;0.60;;
13366;SDS011;6752;52.612;13.630;2022-10-16T15:54:47;2.25;;;0.62;;
13366;SDS011;6752;52.612;13.630;2022-10-16T16:04:51;4.43;;;0.85;;
13366;SDS011;6752;52.612;13.630;2022-10-16T16:09:53;1.92;;;0.60;;
13366;SDS011;6752;52.612;13.630;2022-10-16T16:14:59;2.53;;;0.60;;
13366;SDS011;6752;52.612;13.630;2022-10-16T16:25:06;2.45;;;0.88;;
13366;SDS011;6752;52.612;13.630;2022-10-16T16:30:09;1.58;;;0.62;;
13366;SDS011;6752;52.612;13.630;2022-10-16T16:35:10;2.20;;;0.62;;
13366;SDS011;6752;52.612;13.630;2022-10-16T16:45:15;4.10;;;1.00;;
13366;SDS011;6752;52.612;13.630;2022-10-16T16:50:17;3.67;;;1.10;;
13366;SDS011;6752;52.612;13.630;2022-10-16T16:55:19;4.10;;;1.42;;
13366;SDS011;6752;52.612;13.630;2022-10-16T17:05:24;4.20;;;1.10;;
13366;SDS011;6752;52.612;13.630;2022-10-16T17:10:26;2.87;;;0.98;;
13366;SDS011;6752;52.612;13.630;2022-10-16T17:15:28;2.90;;;0.90;;
13366;SDS011;6752;52.612;13.630;2022-10-16T17:20:31;2.22;;;0.90;;
13366;SDS011;6752;52.612;13.630;2022-10-16T17:25:36;2.47;;;1.00;;
13366;SDS011;6752;52.612;13.630;2022-10-16T17:30:39;1.80;;;0.90;;
13366;SDS011;6752;52.612;13.630;2022-10-16T17:35:42;2.28;;;0.93;;
13366;SDS011;6752;52.612;13.630;2022-10-16T17:40:46;3.25;;;0.98;;
13366;SDS011;6752;52.612;13.630;2022-10-16T17:45:48;3.55;;;1.33;;
13366;SDS011;6752;52.612;13.630;2022-10-16T17:50:50;4.60;;;1.30;;
13366;SDS011;6752;52.612;13.630;2022-10-16T17:55:53;4.75;;;2.03;;
13366;SDS011;6752;52.612;13.630;2022-10-16T18:00:55;6.43;;;2.85;;
13366;SDS011;6752;52.612;13.630;2022-10-16T18:05:58;6.72;;;3.47;;
13366;SDS011;6752;52.612;13.630;2022-10-16T18:11:00;3.12;;;1.27;;
13366;SDS011;6752;52.612;13.630;2022-10-16T18:21:07;3.97;;;1.50;;
13366;SDS011;6752;52.612;13.630;2022-10-16T18:26:09;6.95;;;2.10;;
13366;SDS011;6752;52.612;13.630;2022-10-16T18:31:13;4.65;;;2.40;;
13366;SDS011;6752;52.612;13.630;2022-10-16T18:36:14;3.42;;;1.65;;
13366;SDS011;6752;52.612;13.630;2022-10-16T18:41:16;3.75;;;1.75;;
13366;SDS011;6752;52.612;13.630;2022-10-16T18:46:20;5.18;;;2.15;;
13366;SDS011;6752;52.612;13.630;2022-10-16T18:56:24;6.90;;;2.30;;
13366;SDS011;6752;52.612;13.630;2022-10-16T19:01:27;6.10;;;2.25;;
13366;SDS011;6752;52.612;13.630;2022-10-16T19:06:29;7.60;;;3.40;;
13366;SDS011;6752;52.612;13.630;2022-10-16T19:11:31;5.32;;;2.65;;
13366;SDS011;6752;52.612;13.630;2022-10-16T19:16:33;7.72;;;4.32;;
13366;SDS011;6752;52.612;13.630;2022-10-16T19:21:36;6.28;;;3.40;;
13366;SDS011;6752;52.612;13.630;2022-10-16T19:26:41;5.07;;;2.55;;
13366;SDS011;6752;52.612;13.630;2022-10-16T19:31:43;5.37;;;2.70;;
13366;SDS011;6752;52.612;13.630;2022-10-16T19:36:46;5.15;;;2.42;;
13366;SDS011;6752;52.612;13.630;2022-10-16T19:46:50;7.35;;;3.03;;
13366;SDS011;6752;52.612;13.630;2022-10-16T19:51:55;4.62;;;2.40;;
13366;SDS011;6752;52.612;13.630;2022-10-16T19:56:57;6.93;;;2.80;;
13366;SDS011;6752;52.612;13.630;2022-10-16T20:02:00;5.68;;;2.83;;
13366;SDS011;6752;52.612;13.630;2022-10-16T20:07:06;5.65;;;3.12;;
13366;SDS011;6752;52.612;13.630;2022-10-16T20:12:09;6.00;;;3.00;;
13366;SDS011;6752;52.612;13.630;2022-10-16T20:17:11;5.35;;;2.92;;
13366;SDS011;6752;52.612;13.630;2022-10-16T20:22:14;5.62;;;3.42;;
13366;SDS011;6752;52.612;13.630;2022-10-16T20:27:16;6.20;;;3.20;;
13366;SDS011;6752;52.612;13.630;2022-10-16T20:32:19;6.90;;;3.53;;
13366;SDS011;6752;52.612;13.630;2022-10-16T20:37:21;10.10;;;3.60;;
13366;SDS011;6752;52.612;13.630;2022-10-16T20:42:23;6.93;;;3.50;;
13366;SDS011;6752;52.612;13.630;2022-10-16T20:47:26;5.50;;;3.30;;
13366;SDS011;6752;52.612;13.630;2022-10-16T20:52:31;12.55;;;8.23;;
13366;SDS011;6752;52.612;13.630;2022-10-16T20:57:33;13.73;;;7.70;;
13366;SDS011;6752;52.612;13.630;2022-10-16T21:02:35;9.65;;;6.70;;
13366;SDS011;6752;52.612;13.630;2022-10-16T21:07:38;9.25;;;5.80;;
13366;SDS011;6752;52.612;13.630;2022-10-16T21:12:40;9.50;;;6.28;;
13366;SDS011;6752;52.612;13.630;2022-10-16T21:17:43;9.18;;;4.90;;
13366;SDS011;6752;52.612;13.630;2022-10-16T21:22:45;9.38;;;5.47;;
13366;SDS011;6752;52.612;13.630;2022-10-16T21:27:47;12.25;;;5.87;;
13366;SDS011;6752;52.612;13.630;2022-10-16T21:37:52;7.72;;;5.32;;
13366;SDS011;6752;52.612;13.630;2022-10-16T21:42:54;7.12;;;4.97;;
13366;SDS011;6752;52.612;13.630;2022-10-16T21:47:56;11.18;;;5.47;;
13366;SDS011;6752;52.612;13.630;2022-10-16T21:52:59;10.43;;;5.68;;
13366;SDS011;6752;52.612;13.630;2022-10-16T21:58:01;10.70;;;5.50;;
13366;SDS011;6752;52.612;13.630;2022-10-16T22:03:03;7.60;;;5.20;;
13366;SDS011;6752;52.612;13.630;2022-10-16T22:08:06;8.13;;;5.55;;
13366;SDS011;6752;52.612;13.630;2022-10-16T22:13:11;11.15;;;6.07;;
13366;SDS011;6752;52.612;13.630;2022-10-16T22:18:13;8.75;;;6.15;;
13366;SDS011;6752;52.612;13.630;2022-10-16T22:23:16;9.80;;;5.90;;
13366;SDS011;6752;52.612;13.630;2022-10-16T22:28:18;12.18;;;6.80;;
13366;SDS011;6752;52.612;13.630;2022-10-16T22:33:20;9.82;;;6.87;;
13366;SDS011;6752;52.612;13.630;2022-10-16T22:38:27;13.25;;;8.00;;
13366;SDS011;6752;52.612;13.630;2022-10-16T22:43:33;12.90;;;8.07;;
13366;SDS011;6752;52.612;13.630;2022-10-16T22:48:36;10.45;;;7.53;;
13366;SDS011;6752;52.612;13.630;2022-10-16T22:53:39;10.60;;;7.40;;
13366;SDS011;6752;52.612;13.630;2022-10-16T22:58:44;10.07;;;6.35;;
13366;SDS011;6752;52.612;13.630;2022-10-16T23:03:47;12.25;;;7.10;;
13366;SDS011;6752;52.612;13.630;2022-10-16T23:08:54;16.98;;;7.45;;
13366;SDS011;6752;52.612;13.630;2022-10-16T23:13:52;11.35;;;7.93;;
13366;SDS011;6752;52.612;13.630;2022-10-16T23:18:57;13.25;;;7.60;;
13366;SDS011;6752;52.612;13.630;2022-10-16T23:24:00;11.02;;;7.78;;
13366;SDS011;6752;52.612;13.630;2022-10-16T23:29:04;10.15;;;6.87;;
13366;SDS011;6752;52.612;13.630;2022-10-16T23:34:07;11.20;;;7.40;;
13366;SDS011;6752;52.612;13.630;2022-10-16T23:39:09;11.77;;;7.80;;
13366;SDS011;6752;52.612;13.630;2022-10-16T23:44:14;12.35;;;8.43;;
13366;SDS011;6752;52.612;13.630;2022-10-16T23:49:16;11.57;;;7.32;;
13366;SDS011;6752;52.612;13.630;2022-10-16T23:54:31;8.80;;;6.95;;
13366;SDS011;6752;52.612;13.630;2022-10-16T23:59:33;10.82;;;7.28;;
